Time;durP1;ratioP1;P1;durP2;ratioP2;P2;SDS_P1;SDS_P2;PMS_P1;PMS_P2;Temp;Humidity;BMP_temperature;BMP_pressure;BME280_temperature;BME280_humidity;BME280_pressure;Samples;Min_cycle;Max_cycle;Signal;HPM_P1;HPM_P2
2022/07/03 00:02:26;;;;;;;5.47;2.92;;;;;;;19.41;100.00;101706.88;4965563;28;20751;-64
2022/07/03 00:04:52;;;;;;;4.10;2.47;;;;;;;19.44;100.00;101704.63;4957959;28;20534;-62
2022/07/03 00:07:19;;;;;;;3.28;2.45;;;;;;;19.43;100.00;101696.88;4969398;28;20042;-63
2022/07/03 00:09:45;;;;;;;8.18;2.75;;;;;;;19.40;100.00;101699.88;4963437;28;20038;-63
2022/07/03 00:12:12;;;;;;;3.88;2.80;;;;;;;19.34;100.00;101694.28;4968798;28;20050;-63
2022/07/03 00:14:38;;;;;;;7.03;3.10;;;;;;;19.29;100.00;101687.88;4969672;28;20050;-64
2022/07/03 00:17:05;;;;;;;4.85;2.83;;;;;;;19.24;100.00;101687.59;4954269;28;20047;-62
2022/07/03 00:19:31;;;;;;;6.07;3.05;;;;;;;19.18;100.00;101686.47;4965173;28;20050;-64
2022/07/03 00:22:04;;;;;;;3.58;2.65;;;;;;;19.13;100.00;101684.38;4962751;28;20066;-65
2022/07/03 00:24:37;;;;;;;3.72;2.58;;;;;;;19.10;100.00;101683.91;4969297;28;20046;-64
2022/07/03 00:27:08;;;;;;;6.00;2.50;;;;;;;19.02;100.00;101673.34;4965652;28;20054;-63
2022/07/03 00:29:41;;;;;;;4.10;2.60;;;;;;;19.02;100.00;101684.00;4974707;28;20047;-62
2022/07/03 00:32:12;;;;;;;5.57;2.58;;;;;;;18.98;100.00;101688.03;4949811;28;20724;-63
2022/07/03 00:34:40;;;;;;;6.35;2.80;;;;;;;18.95;100.00;101687.38;4971093;28;20047;-63
2022/07/03 00:37:09;;;;;;;5.85;4.30;;;;;;;18.96;100.00;101686.34;4961189;28;20195;-63
2022/07/03 00:39:38;;;;;;;;;;;;;;;18.94;100.00;101690.22;4959982;28;20055;-63
2022/07/03 00:42:06;;;;;;;4.70;2.95;;;;;;;18.93;100.00;101692.06;4968753;28;19921;-63
2022/07/03 00:44:46;;;;;;;5.10;2.90;;;;;;;18.84;100.00;101681.69;4967639;28;20054;-64
2022/07/03 00:47:13;;;;;;;5.38;2.70;;;;;;;18.77;100.00;101674.34;4954830;28;20080;-64
2022/07/03 00:49:43;;;;;;;5.20;2.65;;;;;;;18.78;100.00;101672.56;4968528;28;20061;-64
2022/07/03 00:52:12;;;;;;;5.32;2.75;;;;;;;18.74;100.00;101681.88;4962329;28;20054;-63
2022/07/03 00:54:43;;;;;;;4.45;2.88;;;;;;;18.72;100.00;101689.22;4960078;28;20054;-63
2022/07/03 00:57:15;;;;;;;4.00;2.92;;;;;;;18.65;100.00;101683.78;4963056;28;20046;-63
2022/07/03 00:59:43;;;;;;;4.50;2.75;;;;;;;18.61;100.00;101682.47;4961877;28;20153;-63
2022/07/03 01:02:24;;;;;;;3.33;2.70;;;;;;;18.54;100.00;101685.03;4961481;28;20484;-64
2022/07/03 01:05:12;;;;;;;4.32;2.70;;;;;;;18.47;100.00;101686.75;4968811;28;20046;-64
2022/07/03 01:07:50;;;;;;;3.75;3.03;;;;;;;18.36;100.00;101684.50;4968868;28;20056;-64
2022/07/03 01:10:34;;;;;;;5.65;3.30;;;;;;;18.26;100.00;101675.94;4963285;28;20138;-64
2022/07/03 01:13:27;;;;;;;5.32;2.92;;;;;;;18.20;100.00;101674.81;4963905;28;20051;-64
2022/07/03 01:16:16;;;;;;;5.88;3.25;;;;;;;18.17;100.00;101675.19;4945189;28;20404;-63
2022/07/03 01:18:53;;;;;;;3.92;3.08;;;;;;;18.14;100.00;101668.38;4968612;28;20089;-62
2022/07/03 01:21:45;;;;;;;8.18;3.20;;;;;;;18.11;100.00;101670.53;4962292;28;20050;-64
2022/07/03 01:24:30;;;;;;;5.82;3.70;;;;;;;18.09;100.00;101676.06;4967985;28;20051;-64
2022/07/03 01:27:03;;;;;;;4.43;3.20;;;;;;;18.07;100.00;101667.44;4958072;28;20062;-64
2022/07/03 01:29:42;;;;;;;5.72;3.70;;;;;;;18.03;100.00;101662.63;4964504;28;20043;-62
2022/07/03 01:32:12;;;;;;;6.28;3.88;;;;;;;18.04;100.00;101673.09;4958483;28;20054;-63
2022/07/03 01:34:44;;;;;;;8.05;4.63;;;;;;;17.98;100.00;101669.28;4959288;28;20134;-63
2022/07/03 01:37:15;;;;;;;8.00;3.70;;;;;;;17.96;100.00;101671.31;4950978;28;20133;-65
2022/07/03 01:39:44;;;;;;;5.35;3.30;;;;;;;17.91;100.00;101680.78;4949470;28;20043;-64
2022/07/03 01:42:23;;;;;;;6.53;3.95;;;;;;;17.85;100.00;101679.66;4962716;28;20134;-63
2022/07/03 01:44:51;;;;;;;5.72;3.60;;;;;;;17.82;100.00;101681.78;4957923;28;20058;-62
2022/07/03 01:47:20;;;;;;;6.53;3.90;;;;;;;17.81;100.00;101698.72;4968102;28;20061;-63
2022/07/03 01:49:54;;;;;;;6.07;3.72;;;;;;;17.75;100.00;101694.94;4967218;28;20807;-63
2022/07/03 01:52:21;;;;;;;4.03;3.10;;;;;;;17.75;100.00;101702.88;4971185;28;20111;-63
2022/07/03 01:55:09;;;;;;;5.20;3.20;;;;;;;17.70;100.00;101697.25;4962279;28;20059;-63
2022/07/03 01:57:43;;;;;;;5.55;3.47;;;;;;;17.72;100.00;101704.06;4962096;28;20497;-63
2022/07/03 02:00:12;;;;;;;7.75;3.28;;;;;;;17.70;100.00;101698.09;4963116;28;20053;-63
2022/07/03 02:03:02;;;;;;;7.43;3.60;;;;;;;17.70;100.00;101698.09;4970985;28;20054;-63
2022/07/03 02:05:37;;;;;;;4.75;3.70;;;;;;;17.73;100.00;101695.09;4970729;28;20078;-63
2022/07/03 02:08:15;;;;;;;7.57;3.58;;;;;;;17.76;100.00;101696.59;4961484;28;20054;-63
2022/07/03 02:10:46;;;;;;;6.95;3.55;;;;;;;17.77;100.00;101691.09;4963209;28;20767;-63
2022/07/03 02:13:22;;;;;;;6.20;4.32;;;;;;;17.81;100.00;101685.44;4963642;28;20046;-63
2022/07/03 02:15:53;;;;;;;4.50;2.92;;;;;;;17.78;100.00;101676.84;4972652;28;20054;-63
2022/07/03 02:18:32;;;;;;;10.38;4.13;;;;;;;17.77;100.00;101672.50;4966794;28;20138;-63
2022/07/03 02:21:14;;;;;;;8.82;4.45;;;;;;;17.83;100.00;101673.66;4969596;28;20411;-63
2022/07/03 02:24:01;;;;;;;5.78;3.40;;;;;;;17.84;100.00;101675.34;4958039;28;20057;-62
2022/07/03 02:26:33;;;;;;;4.97;3.38;;;;;;;17.76;100.00;101678.03;4964770;28;20063;-63
2022/07/03 02:29:14;;;;;;;6.80;4.03;;;;;;;17.75;100.00;101674.50;4964424;28;20046;-64
2022/07/03 02:31:46;;;;;;;5.88;3.22;;;;;;;17.72;100.00;101671.38;4971533;28;20126;-65
2022/07/03 02:34:17;;;;;;;6.30;4.13;;;;;;;17.70;100.00;101686.63;4970704;28;20055;-64
2022/07/03 02:36:48;;;;;;;5.82;3.80;;;;;;;17.68;100.00;101681.53;4949516;28;20064;-63
2022/07/03 02:39:45;;;;;;;4.93;3.22;;;;;;;17.68;100.00;101684.19;4966533;28;20053;-64
2022/07/03 02:42:24;;;;;;;7.43;3.60;;;;;;;17.62;100.00;101676.06;4940515;28;20055;-64
2022/07/03 02:44:54;;;;;;;5.20;3.78;;;;;;;17.61;100.00;101683.22;4966801;28;20049;-64
2022/07/03 02:47:30;;;;;;;4.40;3.53;;;;;;;17.62;100.00;101681.38;4962914;28;20056;-63
2022/07/03 02:50:01;;;;;;;6.50;4.20;;;;;;;17.59;100.00;101678.06;4958194;28;20047;-63
2022/07/03 02:52:46;;;;;;;5.82;3.72;;;;;;;17.57;100.00;101673.94;4949749;28;20050;-63
2022/07/03 02:55:42;;;;;;;5.45;4.00;;;;;;;17.52;100.00;101663.84;4962312;28;20051;-64
2022/07/03 02:58:45;;;;;;;6.70;4.10;;;;;;;17.49;100.00;101669.50;4960734;28;20051;-62
2022/07/03 03:01:29;;;;;;;5.57;2.97;;;;;;;17.44;100.00;101678.97;4958103;28;20051;-63
2022/07/03 03:04:09;;;;;;;5.88;3.38;;;;;;;17.37;100.00;101684.13;4957686;28;20490;-63
2022/07/03 03:06:37;;;;;;;4.82;3.17;;;;;;;17.34;100.00;101682.63;4964474;28;20657;-64
2022/07/03 03:09:08;;;;;;;7.00;4.13;;;;;;;17.29;100.00;101690.28;4960887;28;20054;-62
2022/07/03 03:11:45;;;;;;;5.50;3.40;;;;;;;17.25;100.00;101688.97;4968581;28;20043;-63
2022/07/03 03:14:13;;;;;;;6.78;3.70;;;;;;;17.23;100.00;101683.00;4968123;28;20096;-64
2022/07/03 03:16:50;;;;;;;5.50;3.90;;;;;;;17.25;100.00;101682.81;4953318;28;20054;-63
2022/07/03 03:19:22;;;;;;;6.65;3.88;;;;;;;17.23;100.00;101679.50;4971277;28;20526;-64
2022/07/03 03:22:04;;;;;;;6.80;3.75;;;;;;;17.18;100.00;101680.03;4960543;28;20497;-63
2022/07/03 03:24:33;;;;;;;5.47;3.65;;;;;;;17.11;100.00;101693.13;4962516;28;20101;-62
2022/07/03 03:27:00;;;;;;;5.82;3.63;;;;;;;17.09;100.00;101696.94;4958154;28;20055;-62
2022/07/03 03:29:27;;;;;;;6.18;4.35;;;;;;;17.13;100.00;101699.09;4957359;28;20047;-62
2022/07/03 03:31:54;;;;;;;6.03;3.55;;;;;;;17.13;100.00;101690.28;4958288;28;20051;-63
2022/07/03 03:34:26;;;;;;;6.57;3.65;;;;;;;17.15;100.00;101693.59;4957529;28;20047;-64
2022/07/03 03:36:53;;;;;;;7.10;3.87;;;;;;;17.14;100.00;101698.09;4968875;28;20107;-64
2022/07/03 03:39:20;;;;;;;8.57;4.10;;;;;;;17.15;100.00;101705.06;4956476;28;20067;-63
2022/07/03 03:41:46;;;;;;;6.85;4.05;;;;;;;17.13;100.00;101701.75;4968702;28;20047;-65
2022/07/03 03:44:12;;;;;;;5.55;4.00;;;;;;;17.14;100.00;101703.38;4956620;28;20508;-64
2022/07/03 03:46:39;;;;;;;8.13;4.25;;;;;;;17.17;100.00;101691.59;4961581;28;20064;-63
2022/07/03 03:49:06;;;;;;;6.95;4.05;;;;;;;17.10;100.00;101698.59;4961479;28;20057;-62
2022/07/03 03:51:32;;;;;;;8.27;4.00;;;;;;;17.04;100.00;101691.31;4961977;28;20039;-62
2022/07/03 03:53:58;;;;;;;6.43;4.03;;;;;;;17.04;100.00;101700.09;4966982;28;20060;-63
2022/07/03 03:56:25;;;;;;;6.18;3.70;;;;;;;17.09;100.00;101707.53;4961294;28;20046;-63
2022/07/03 03:58:51;;;;;;;6.07;3.90;;;;;;;17.11;100.00;101694.94;4963058;28;20047;-63
2022/07/03 04:01:18;;;;;;;6.68;4.03;;;;;;;17.12;100.00;101693.94;4954641;28;20525;-63
2022/07/03 04:03:44;;;;;;;9.88;4.40;;;;;;;17.14;100.00;101692.78;4962049;28;20412;-64
2022/07/03 04:06:11;;;;;;;8.88;4.32;;;;;;;17.17;100.00;101687.16;4961664;28;20047;-64
2022/07/03 04:08:37;;;;;;;10.73;3.85;;;;;;;17.16;100.00;101695.28;4961086;28;20046;-63
2022/07/03 04:11:04;;;;;;;9.52;4.50;;;;;;;17.19;100.00;101694.94;4965789;28;20051;-64
2022/07/03 04:13:30;;;;;;;8.30;4.60;;;;;;;17.21;100.00;101698.25;4948726;28;20444;-63
2022/07/03 04:15:57;;;;;;;6.53;3.63;;;;;;;17.27;100.00;101694.06;4965780;28;20141;-64
2022/07/03 04:18:23;;;;;;;9.90;5.38;;;;;;;17.27;100.00;101694.94;4953560;28;20055;-64
2022/07/03 04:20:56;;;;;;;6.65;4.50;;;;;;;17.28;100.00;101691.25;4968945;28;20138;-65
2022/07/03 04:23:22;;;;;;;8.10;4.25;;;;;;;17.30;100.00;101685.78;4956190;28;20058;-63
2022/07/03 04:25:48;;;;;;;5.35;4.15;;;;;;;17.30;100.00;101691.91;4945451;28;20570;-63
2022/07/03 04:28:15;;;;;;;6.53;4.35;;;;;;;17.31;100.00;101687.47;4959346;28;20051;-64
2022/07/03 04:30:47;;;;;;;6.07;4.70;;;;;;;17.27;100.00;101684.31;4955272;28;20047;-62
2022/07/03 04:33:13;;;;;;;8.63;4.50;;;;;;;17.27;100.00;101686.13;4958806;28;20057;-64
2022/07/03 04:35:40;;;;;;;7.00;4.45;;;;;;;17.25;100.00;101701.38;4959919;28;20055;-63
2022/07/03 04:38:06;;;;;;;12.32;4.88;;;;;;;17.24;100.00;101700.56;4963807;28;20134;-64
2022/07/03 04:40:33;;;;;;;9.15;4.55;;;;;;;17.27;100.00;101702.88;4962690;28;20061;-64
2022/07/03 04:42:59;;;;;;;7.18;5.20;;;;;;;17.22;100.00;101707.84;4956660;28;20054;-65
2022/07/03 04:45:25;;;;;;;7.63;5.60;;;;;;;17.21;100.00;101708.84;4966410;28;20054;-64
2022/07/03 04:47:52;;;;;;;9.13;5.18;;;;;;;17.20;100.00;101710.66;4956848;28;20047;-63
2022/07/03 04:50:18;;;;;;;6.65;5.55;;;;;;;17.22;100.00;101713.16;4959665;28;20047;-63
2022/07/03 04:52:45;;;;;;;6.35;5.18;;;;;;;17.23;100.00;101709.50;4960370;28;20069;-64
2022/07/03 04:55:12;;;;;;;9.05;5.63;;;;;;;17.23;100.00;101709.50;4955250;28;20054;-61
2022/07/03 04:57:39;;;;;;;7.75;5.50;;;;;;;17.24;100.00;101715.63;4964567;28;20063;-62
2022/07/03 05:00:06;;;;;;;8.25;6.50;;;;;;;17.22;100.00;101712.31;4959549;28;20051;-61
2022/07/03 05:02:33;;;;;;;8.48;5.60;;;;;;;17.22;100.00;101715.81;4966970;28;20149;-63
2022/07/03 05:04:59;;;;;;;7.78;5.70;;;;;;;17.18;100.00;101719.78;4952555;28;20055;-61
2022/07/03 05:07:26;;;;;;;10.13;5.60;;;;;;;17.21;100.00;101716.81;4962555;28;20049;-63
2022/07/03 05:09:52;;;;;;;9.80;5.80;;;;;;;17.23;100.00;101721.94;4952728;28;20061;-63
2022/07/03 05:12:19;;;;;;;7.80;4.95;;;;;;;17.22;100.00;101721.09;4966216;28;20062;-63
2022/07/03 05:14:45;;;;;;;8.30;5.30;;;;;;;17.32;100.00;101726.22;4965383;28;20129;-63
2022/07/03 05:17:12;;;;;;;7.22;4.70;;;;;;;17.35;100.00;101720.59;4945554;28;20055;-62
2022/07/03 05:19:38;;;;;;;7.82;5.05;;;;;;;17.41;100.00;101719.91;4966301;28;20059;-61
2022/07/03 05:22:05;;;;;;;6.80;4.78;;;;;;;17.47;100.00;101724.53;4953554;28;20054;-61
2022/07/03 05:24:31;;;;;;;5.85;3.90;;;;;;;17.53;100.00;101721.19;4962707;28;20055;-63
2022/07/03 05:26:58;;;;;;;8.20;4.55;;;;;;;17.63;100.00;101728.97;4961408;28;20097;-63
2022/07/03 05:29:24;;;;;;;5.70;4.10;;;;;;;17.75;100.00;101734.72;4964165;28;20141;-63
2022/07/03 05:31:51;;;;;;;6.30;3.50;;;;;;;17.77;100.00;101736.19;4952675;28;20051;-62
2022/07/03 05:34:17;;;;;;;9.25;3.42;;;;;;;17.88;100.00;101736.88;4944586;28;20061;-60
2022/07/03 05:36:44;;;;;;;6.28;3.67;;;;;;;17.90;100.00;101730.38;4964717;28;20047;-63
2022/07/03 05:41:55;;;;;;;6.70;3.60;;;;;;;17.97;100.00;101731.38;4970499;28;20055;-63
2022/07/03 05:44:21;;;;;;;6.55;3.25;;;;;;;18.01;100.00;101731.81;4960722;28;20047;-62
2022/07/03 05:46:48;;;;;;;6.15;2.80;;;;;;;17.98;100.00;101730.34;4965369;28;20616;-62
2022/07/03 05:49:14;;;;;;;7.10;3.00;;;;;;;18.00;100.00;101732.84;4967168;28;20262;-63
2022/07/03 05:51:41;;;;;;;5.82;3.25;;;;;;;17.93;100.00;101731.88;4950164;28;20142;-62
2022/07/03 05:54:08;;;;;;;5.65;3.40;;;;;;;17.95;100.00;101745.78;4964306;28;20050;-62
2022/07/03 05:56:34;;;;;;;7.32;3.33;;;;;;;17.92;100.00;101738.19;4964112;28;20760;-62
2022/07/03 05:59:01;;;;;;;9.18;3.42;;;;;;;17.89;100.00;101749.94;4969888;28;20061;-63
2022/07/03 06:01:27;;;;;;;7.72;3.70;;;;;;;17.92;100.00;101748.81;4968254;28;20068;-63
2022/07/03 06:03:54;;;;;;;6.18;3.75;;;;;;;17.92;100.00;101744.31;4961952;28;20070;-61
2022/07/03 06:06:20;;;;;;;6.65;3.97;;;;;;;17.89;100.00;101739.34;4960070;28;20133;-61
2022/07/03 06:08:47;;;;;;;7.15;3.80;;;;;;;17.96;100.00;101737.66;4962056;28;20443;-62
2022/07/03 06:11:13;;;;;;;4.90;3.50;;;;;;;18.06;100.00;101742.75;4968645;28;20055;-62
2022/07/03 06:13:40;;;;;;;5.57;3.65;;;;;;;18.09;100.00;101734.47;4962519;28;20054;-63
2022/07/03 06:16:06;;;;;;;10.65;3.33;;;;;;;18.14;100.00;101731.28;4969497;28;20531;-62
2022/07/03 06:18:33;;;;;;;8.52;3.03;;;;;;;18.23;100.00;101740.84;4952697;28;20134;-62
2022/07/03 06:20:59;;;;;;;8.57;3.30;;;;;;;18.30;100.00;101740.97;4960567;28;20673;-61
2022/07/03 06:23:25;;;;;;;10.80;3.20;;;;;;;18.41;100.00;101742.41;4969079;28;20055;-62
2022/07/03 06:26:14;;;;;;;8.57;3.70;;;;;;;18.41;100.00;101748.53;4955529;28;20070;-62
2022/07/03 06:28:40;;;;;;;8.77;2.47;;;;;;;18.44;100.00;101742.06;4969104;28;20120;-62
2022/07/03 06:31:07;;;;;;;7.65;2.60;;;;;;;18.47;100.00;101737.22;4955721;28;20101;-61
2022/07/03 06:33:34;;;;;;;6.15;2.22;;;;;;;18.45;100.00;101738.41;4965009;28;20089;-62
2022/07/03 06:36:00;;;;;;;4.50;2.20;;;;;;;18.44;100.00;101734.91;4963010;28;20141;-63
2022/07/03 06:38:27;;;;;;;5.85;2.08;;;;;;;18.51;100.00;101743.00;4967118;28;20082;-64
2022/07/03 06:40:53;;;;;;;5.28;2.22;;;;;;;18.53;100.00;101747.13;4969016;28;20054;-63
2022/07/03 06:43:19;;;;;;;5.13;2.80;;;;;;;18.58;100.00;101755.41;4961560;28;20053;-62
2022/07/03 06:45:46;;;;;;;4.55;2.83;;;;;;;18.63;100.00;101748.75;4963058;28;20146;-62
2022/07/03 06:48:12;;;;;;;5.70;2.13;;;;;;;18.69;100.00;101745.38;4956424;28;20137;-62
2022/07/03 06:50:39;;;;;;;7.47;2.35;;;;;;;18.70;100.00;101747.00;4969273;28;20054;-63
2022/07/03 06:53:05;;;;;;;10.88;2.53;;;;;;;18.74;100.00;101743.84;4964730;28;20058;-63
2022/07/03 06:55:32;;;;;;;5.68;2.10;;;;;;;18.76;100.00;101746.31;4959149;28;20491;-63
2022/07/03 06:57:58;;;;;;;6.25;2.63;;;;;;;18.72;100.00;101750.34;4963530;28;20043;-63
2022/07/03 07:00:25;;;;;;;4.90;2.10;;;;;;;18.78;100.00;101753.09;4954939;28;20150;-61
2022/07/03 07:02:51;;;;;;;8.77;2.58;;;;;;;18.74;100.00;101751.81;4967955;28;20487;-63
2022/07/03 07:05:18;;;;;;;5.88;2.20;;;;;;;18.82;100.00;101752.75;4961752;28;20551;-63
2022/07/03 07:07:44;;;;;;;7.72;3.00;;;;;;;18.80;100.00;101755.63;4968556;28;20569;-61
2022/07/03 07:10:11;;;;;;;13.05;2.78;;;;;;;18.88;100.00;101752.06;4963082;28;20082;-62
2022/07/03 07:12:37;;;;;;;4.35;2.00;;;;;;;18.92;100.00;101748.88;4959149;28;20058;-64
2022/07/03 07:15:05;;;;;;;7.68;2.35;;;;;;;18.94;100.00;101756.66;4958158;28;20054;-63
2022/07/03 07:17:31;;;;;;;6.13;2.00;;;;;;;19.02;100.00;101753.13;4960342;28;20054;-62
2022/07/03 07:19:58;;;;;;;4.57;1.73;;;;;;;19.11;100.00;101752.03;4964434;28;20051;-63
2022/07/03 07:22:25;;;;;;;6.75;2.05;;;;;;;19.08;100.00;101737.25;4961198;28;20062;-63
2022/07/03 07:24:52;;;;;;;6.93;1.67;;;;;;;19.14;100.00;101741.03;4968472;28;20505;-62
2022/07/03 07:27:18;;;;;;;4.60;1.60;;;;;;;19.13;100.00;101737.56;4960140;28;20047;-62
2022/07/03 07:29:45;;;;;;;3.75;1.40;;;;;;;19.22;100.00;101735.63;4957171;28;20051;-62
2022/07/03 07:32:12;;;;;;;3.47;1.40;;;;;;;19.25;100.00;101743.25;4960884;28;20081;-62
2022/07/03 07:34:38;;;;;;;5.20;1.92;;;;;;;19.30;100.00;101746.19;4960677;28;20456;-62
2022/07/03 07:37:04;;;;;;;4.65;1.50;;;;;;;19.33;100.00;101742.34;4968235;28;20057;-62
2022/07/03 07:39:31;;;;;;;6.07;1.80;;;;;;;19.36;100.00;101755.28;4962784;28;20532;-62
2022/07/03 07:41:58;;;;;;;8.15;2.05;;;;;;;19.40;100.00;101755.75;4962817;28;20432;-61
2022/07/03 07:44:24;;;;;;;11.27;2.13;;;;;;;19.40;100.00;101753.91;4961698;28;20047;-62
2022/07/03 07:46:50;;;;;;;4.03;1.90;;;;;;;19.43;100.00;101756.22;4949731;28;20058;-62
2022/07/03 07:49:17;;;;;;;4.03;1.60;;;;;;;19.52;100.00;101757.78;4965739;28;20425;-63
2022/07/03 07:51:43;;;;;;;7.80;2.03;;;;;;;19.62;100.00;101767.31;4961118;28;20058;-63
2022/07/03 07:54:10;;;;;;;5.50;1.65;;;;;;;19.67;100.00;101759.63;4963504;28;20066;-63
2022/07/03 07:56:36;;;;;;;4.53;1.50;;;;;;;19.79;100.00;101766.16;4953769;28;20055;-63
2022/07/03 07:59:03;;;;;;;4.05;1.70;;;;;;;19.81;100.00;101764.13;4968058;28;20414;-63
2022/07/03 08:06:59;;;;;;;5.07;1.30;;;;;;;19.98;100.00;101779.94;4961988;28;20042;-62
2022/07/03 08:09:25;;;;;;;4.28;1.50;;;;;;;19.91;100.00;101780.63;4952716;28;20134;-63
2022/07/03 08:11:52;;;;;;;4.35;1.45;;;;;;;19.97;100.00;101780.94;4964961;28;20059;-63
2022/07/03 08:14:18;;;;;;;4.75;1.13;;;;;;;19.98;100.00;101778.09;4960757;28;20499;-63
2022/07/03 08:16:46;;;;;;;4.15;1.30;;;;;;;20.01;100.00;101777.69;4966101;28;20049;-63
2022/07/03 08:19:13;;;;;;;8.82;1.65;;;;;;;20.03;100.00;101789.00;4950051;28;20086;-61
2022/07/03 08:21:41;;;;;;;4.43;1.60;;;;;;;20.12;100.00;101774.56;4957479;28;20057;-60
2022/07/03 08:24:07;;;;;;;7.30;1.83;;;;;;;20.11;100.00;101769.41;4956100;28;20057;-63
2022/07/03 08:26:33;;;;;;;3.78;1.40;;;;;;;20.14;100.00;101772.53;4959291;28;20043;-62
2022/07/03 08:29:00;;;;;;;5.72;1.58;;;;;;;20.20;100.00;101778.16;4962438;28;20109;-62
2022/07/03 08:31:26;;;;;;;5.07;1.45;;;;;;;20.32;100.00;101779.31;4956713;28;20043;-63
2022/07/03 08:33:53;;;;;;;6.65;1.67;;;;;;;20.47;100.00;101777.41;4964762;28;20062;-62
2022/07/03 08:36:19;;;;;;;5.43;1.10;;;;;;;20.71;100.00;101784.25;4961754;28;20094;-63
2022/07/03 08:38:46;;;;;;;3.60;1.30;;;;;;;21.02;100.00;101783.09;4945281;28;20467;-63
2022/07/03 08:41:13;;;;;;;4.90;1.35;;;;;;;21.28;100.00;101777.16;4960590;28;20172;-62
2022/07/03 08:43:42;;;;;;;4.15;1.25;;;;;;;21.74;100.00;101773.16;4955109;28;20059;-62
2022/07/03 08:46:11;;;;;;;3.55;1.42;;;;;;;22.15;100.00;101780.34;4960949;28;20380;-65
2022/07/03 08:48:39;;;;;;;3.08;0.80;;;;;;;22.38;99.96;101781.88;4960286;28;20074;-60
2022/07/03 08:51:05;;;;;;;5.75;1.08;;;;;;;22.66;95.19;101787.09;4958007;28;20057;-62
2022/07/03 08:53:32;;;;;;;2.97;1.00;;;;;;;22.96;94.24;101782.16;4960407;28;20089;-63
2022/07/03 08:56:02;;;;;;;4.70;1.50;;;;;;;23.05;94.75;101786.31;4969910;28;20050;-64
2022/07/03 08:58:30;;;;;;;4.65;1.38;;;;;;;23.28;94.18;101777.84;4965203;28;20054;-62
2022/07/03 09:00:57;;;;;;;3.45;1.33;;;;;;;23.30;94.95;101783.81;4962330;28;20144;-62
2022/07/03 09:03:24;;;;;;;4.30;1.67;;;;;;;23.03;96.20;101777.69;4957984;28;20513;-63
2022/07/03 09:05:51;;;;;;;7.40;1.70;;;;;;;23.49;98.19;101779.47;4959846;28;20051;-63
2022/07/03 09:08:18;;;;;;;3.67;1.35;;;;;;;23.84;100.00;101771.16;4963178;28;20506;-62
2022/07/03 09:10:45;;;;;;;6.72;1.42;;;;;;;23.85;93.55;101775.47;4970996;28;20057;-62
2022/07/03 09:13:11;;;;;;;3.65;1.50;;;;;;;24.05;92.87;101775.41;4964689;28;20054;-63
2022/07/03 09:15:39;;;;;;;4.53;1.33;;;;;;;23.91;92.83;101773.00;4970800;28;20443;-63
2022/07/03 09:18:07;;;;;;;4.90;1.70;;;;;;;24.10;94.35;101765.91;4953536;28;20046;-62
2022/07/03 09:20:39;;;;;;;7.47;1.40;;;;;;;23.97;92.84;101767.63;4954886;28;20043;-63
2022/07/03 09:23:20;;;;;;;2.97;1.10;;;;;;;24.32;93.82;101767.22;4967514;28;20085;-62
2022/07/03 09:25:57;;;;;;;4.25;1.40;;;;;;;24.21;95.97;101776.78;4954003;28;20051;-63
2022/07/03 09:28:43;;;;;;;4.20;1.00;;;;;;;24.38;94.15;101770.91;4965721;28;20046;-63
2022/07/03 09:31:12;;;;;;;3.33;1.27;;;;;;;24.59;89.18;101772.47;4956840;28;20074;-62
2022/07/03 09:34:10;;;;;;;4.40;1.50;;;;;;;24.74;92.79;101764.94;4965471;28;20078;-63
2022/07/03 09:36:41;;;;;;;1.48;1.00;;;;;;;24.63;88.72;101777.16;4914664;28;20058;-62
2022/07/03 09:39:30;;;;;;;4.35;1.13;;;;;;;24.51;89.81;101775.41;4970072;28;20051;-62
2022/07/03 09:42:02;;;;;;;2.20;0.95;;;;;;;24.57;91.24;101778.03;4962824;28;20471;-63
2022/07/03 09:44:34;;;;;;;4.32;1.00;;;;;;;24.90;89.81;101768.13;4960881;28;20043;-62
2022/07/03 09:47:07;;;;;;;2.85;1.23;;;;;;;25.13;91.09;101771.00;4958805;28;20423;-63
2022/07/03 09:49:44;;;;;;;2.75;1.10;;;;;;;24.99;88.91;101769.47;4966257;28;20051;-62
2022/07/03 09:52:30;;;;;;;2.88;1.20;;;;;;;24.56;92.08;101781.78;4964294;28;20066;-63
2022/07/03 09:55:17;;;;;;;2.42;1.40;;;;;;;24.30;93.58;101781.88;4967269;28;20736;-63
2022/07/03 09:57:48;;;;;;;4.47;1.13;;;;;;;24.22;92.75;101778.41;4958840;28;20046;-62
2022/07/03 10:00:17;;;;;;;6.47;1.23;;;;;;;24.45;91.93;101777.06;4954348;28;20055;-63
2022/07/03 10:02:53;;;;;;;;;;;;;;;24.50;90.63;101779.09;4959392;28;20670;-63
2022/07/03 10:05:42;;;;;;;4.15;1.00;;;;;;;24.57;90.62;101786.09;4957354;28;19925;-62
2022/07/03 10:08:16;;;;;;;3.58;1.10;;;;;;;24.88;90.17;101786.31;4969103;28;20419;-62
2022/07/03 10:10:45;;;;;;;4.60;1.20;;;;;;;24.95;88.57;101790.56;4963808;28;20732;-63
2022/07/03 10:13:12;;;;;;;4.13;1.52;;;;;;;24.98;89.61;101787.44;4962399;28;20053;-63
2022/07/03 10:15:39;;;;;;;3.00;1.15;;;;;;;24.81;88.61;101786.34;4958485;28;20050;-62
2022/07/03 10:18:11;;;;;;;4.15;1.13;;;;;;;25.01;87.82;101787.00;4953076;28;20058;-63
2022/07/03 10:20:48;;;;;;;3.38;0.98;;;;;;;25.42;89.28;101788.31;4960346;28;20525;-63
2022/07/03 10:23:20;;;;;;;3.00;1.30;;;;;;;25.78;89.74;101791.25;4963426;28;20058;-63
2022/07/03 10:25:48;;;;;;;5.88;1.58;;;;;;;25.89;88.47;101793.16;4961817;28;20287;-63
2022/07/03 10:28:16;;;;;;;4.13;1.20;;;;;;;25.99;91.19;101787.28;4954942;28;20503;-63
2022/07/03 10:30:44;;;;;;;8.48;1.85;;;;;;;25.84;89.85;101783.09;4964699;28;20058;-62
2022/07/03 10:33:11;;;;;;;;;;;;;;;25.58;90.20;101791.44;4961092;28;20047;-63
2022/07/03 10:35:40;;;;;;;2.55;1.05;;;;;;;25.73;89.06;101789.22;4964774;28;19922;-62
2022/07/03 10:38:35;;;;;;;3.35;1.02;;;;;;;25.78;84.87;101799.31;4961966;28;20081;-63
2022/07/03 10:46:46;;;;;;;1.90;1.00;;;;;;;26.24;86.70;101789.84;4962558;28;20514;-64
2022/07/03 10:49:13;;;;;;;6.63;1.48;;;;;;;26.48;87.03;101798.81;4963527;28;20058;-63
2022/07/03 10:51:48;;;;;;;5.75;1.75;;;;;;;26.31;87.61;101797.84;4968574;28;20076;-64
2022/07/03 10:54:29;;;;;;;3.10;1.20;;;;;;;25.61;84.62;101791.81;4960326;28;20042;-62
2022/07/03 10:56:58;;;;;;;1.92;0.95;;;;;;;25.76;84.59;101801.41;4961972;28;20774;-63
2022/07/03 10:59:31;;;;;;;3.13;1.20;;;;;;;25.82;84.82;101795.13;4967635;28;20050;-63
2022/07/03 11:02:23;;;;;;;2.90;1.10;;;;;;;25.69;87.00;101790.72;4960541;28;20061;-61
2022/07/03 11:04:56;;;;;;;6.15;1.38;;;;;;;25.48;88.37;101794.63;4960252;28;20050;-67
2022/07/03 11:07:26;;;;;;;4.60;1.38;;;;;;;25.57;85.65;101792.50;4950880;28;20058;-63
2022/07/03 11:10:14;;;;;;;5.30;1.60;;;;;;;25.71;85.70;101794.00;4963518;28;20744;-64
2022/07/03 11:12:56;;;;;;;4.68;2.13;;;;;;;26.14;88.38;101787.72;4954267;28;20074;-63
2022/07/03 11:15:48;;;;;;;3.22;1.20;;;;;;;26.12;86.19;101797.06;4966035;28;20047;-63
2022/07/03 11:18:29;;;;;;;3.25;1.20;;;;;;;26.22;82.81;101797.31;4960704;28;20069;-64
2022/07/03 11:21:20;;;;;;;5.15;1.77;;;;;;;25.91;83.98;101795.66;4960086;28;20311;-63
2022/07/03 11:24:05;;;;;;;3.15;1.20;;;;;;;26.15;86.44;101789.38;4962664;28;20487;-63
2022/07/03 11:26:32;;;;;;;3.67;1.20;;;;;;;25.86;86.45;101785.56;4967701;28;20210;-63
2022/07/03 11:28:59;;;;;;;2.10;1.10;;;;;;;26.02;87.94;101784.97;4967960;28;20057;-64
2022/07/03 11:31:25;;;;;;;4.68;1.20;;;;;;;25.98;87.25;101783.78;4961065;28;20057;-63
2022/07/03 11:33:52;;;;;;;2.47;1.23;;;;;;;25.76;84.86;101777.22;4962295;28;20054;-64
2022/07/03 11:36:21;;;;;;;4.45;1.27;;;;;;;25.89;87.87;101785.09;4956106;28;20061;-64
2022/07/03 11:39:09;;;;;;;5.50;1.40;;;;;;;25.79;85.49;101782.13;4965864;28;20057;-63
2022/07/03 11:41:35;;;;;;;7.18;1.33;;;;;;;26.06;87.72;101773.78;4955565;28;20050;-64
2022/07/03 11:44:07;;;;;;;2.80;1.58;;;;;;;25.90;86.04;101765.25;4968761;28;20054;-63
2022/07/03 11:46:37;;;;;;;3.13;1.40;;;;;;;26.21;84.17;101768.81;4967842;28;20051;-62
2022/07/03 11:49:06;;;;;;;2.38;1.10;;;;;;;26.38;87.38;101775.19;4954310;28;20069;-63
2022/07/03 11:51:33;;;;;;;1.88;0.90;;;;;;;26.81;89.40;101774.16;4965157;28;20047;-63